• Join FlightAware (Why Join?)
  • Login
  • US Flag 
11:45AM EDT


 

Airport Tracker/Info


-or-


 

Live Flight TrackerFlight Track Log ✈ UPS1121 ✈ 24-Apr-2013 ✈ KBDL - KPHL

Flight Track Log - Related Links

Times and Time Zones

All times are in EDT time to prevent confusion due to time zone crossing. See the UPS1121 flight status page for this flight to view local times or setup timezone preferences in your user account.

Time Position Orientation Groundspeed Altitude Reporting Facility
EDT Latitude Longitude Course Direction KTS MPH feet Rate Location/Type
10:06PM 41.5920 -72.4670 128° Southeast 371 427 16,200  Level FlightAware
10:07PM 41.5380 -72.3790 129° Southeast 380 437 17,000 1,860 Climbing FlightAware
10:07PM 41.5710 -72.4330 309° West 19,500 2,760 Climbing FlightAware
10:08PM 41.4290 -72.3510 157° South 366 421 20,000 240 Climbing FlightAware
10:09PM 41.3000 -72.3500 180° South 365 420 20,000  Level FlightAware
10:09PM 41.2570 -72.3840 211° Southwest 354 407 20,000  Level FlightAware
10:11PM 41.1610 -72.4730 215° Southwest 20,000  Level FlightAware
10:12PM 41.0900 -72.5340 213° Southwest 351 404 20,000  Level FlightAware
10:12PM 41.0350 -72.5820 213° Southwest 348 400 20,000  Level FlightAware
10:13PM 40.9603 -72.6462 213° Southwest 353 406 20,000  Level FlightAware ADS-B
10:14PM 40.9150 -72.6850 213° Southwest 347 399 20,000  Level FlightAware
10:14PM 40.8893 -72.7072 213° Southwest 354 407 20,000  Level FlightAware ADS-B
10:14PM 40.8480 -72.7427 213° Southwest 354 407 20,000  Level FlightAware ADS-B
10:15PM 40.8065 -72.7783 213° Southwest 354 407 20,000  Level FlightAware ADS-B
10:15PM 40.7647 -72.8141 213° Southwest 354 407 20,000  Level FlightAware ADS-B
10:16PM 40.7222 -72.8505 213° Southwest 354 407 20,000  Level FlightAware ADS-B
10:16PM 40.6798 -72.8867 213° Southwest 354 407 20,000  Level FlightAware ADS-B
10:17PM 40.6378 -72.9226 213° Southwest 353 406 20,000  Level FlightAware ADS-B
10:17PM 40.5966 -72.9579 213° Southwest 353 406 20,000  Level FlightAware ADS-B
10:18PM 40.5554 -72.9929 213° Southwest 351 404 20,000  Level FlightAware ADS-B
10:18PM 40.5129 -73.0291 213° Southwest 350 403 20,000  Level FlightAware ADS-B
10:19PM 40.4718 -73.0640 213° Southwest 350 403 20,000  Level FlightAware ADS-B
10:19PM 40.4263 -73.1026 213° Southwest 350 403 20,000  Level FlightAware ADS-B
10:20PM 40.3845 -73.1380 213° Southwest 350 403 20,000  Level FlightAware ADS-B
10:21PM 40.3414 -73.1743 213° Southwest 350 403 20,000  Level FlightAware ADS-B
10:21PM 40.2994 -73.2096 213° Southwest 353 406 20,000  Level FlightAware ADS-B
10:22PM 40.2579 -73.2445 213° Southwest 353 406 20,000  Level FlightAware ADS-B
10:22PM 40.2160 -73.2797 213° Southwest 354 407 20,000  Level FlightAware ADS-B
10:23PM 40.1745 -73.3145 213° Southwest 354 407 20,000  Level FlightAware ADS-B
10:23PM 40.1324 -73.3497 213° Southwest 354 407 20,000  Level FlightAware ADS-B
10:24PM 40.0887 -73.3860 212° Southwest 355 409 20,000  Level FlightAware ADS-B
10:24PM 40.0467 -73.4211 213° Southwest 356 410 20,000  Level FlightAware ADS-B
10:25PM 40.0066 -73.4546 213° Southwest 356 410 20,000  Level FlightAware ADS-B
10:25PM 39.9886 -73.4719 216° Southwest 355 409 20,000  Level FlightAware ADS-B
10:25PM 39.9528 -73.5161 223° Southwest 354 407 20,000  Level FlightAware ADS-B
10:26PM 39.9191 -73.5630 227° Southwest 353 406 20,000  Level FlightAware ADS-B
10:26PM 39.8880 -73.6080 228° Southwest 353 406 20,000  Level FlightAware
10:26PM 39.8855 -73.6120 231° Southwest 353 406 20,000  Level FlightAware ADS-B
10:27PM 39.8500 -73.6639 228° Southwest 353 406 20,000  Level FlightAware ADS-B
10:27PM 39.8172 -73.7118 228° Southwest 352 405 20,000  Level FlightAware ADS-B
10:28PM 39.7834 -73.7612 228° Southwest 351 404 20,000  Level FlightAware ADS-B
10:28PM 39.7494 -73.8107 228° Southwest 350 403 20,000  Level FlightAware ADS-B
10:29PM 39.7153 -73.8606 228° Southwest 349 402 20,000 -720 Level FlightAware ADS-B
10:29PM 39.6828 -73.9084 229° Southwest 343 395 19,300 -1,680 Descending FlightAware ADS-B
10:30PM 39.6498 -73.9568 228° Southwest 335 386 18,300 -1,980 Descending FlightAware ADS-B
10:30PM 39.6220 -73.9980 229° Southwest 329 379 17,300 -2,280 Descending FlightAware
10:31PM 39.6140 -74.0094 228° Southwest 328 377 17,000 -2,220 Descending FlightAware ADS-B
10:31PM 39.5831 -74.0545 228° Southwest 323 372 16,000 -1,980 Descending FlightAware ADS-B
10:32PM 39.5533 -74.0977 228° Southwest 318 366 15,000 -2,100 Descending FlightAware ADS-B
10:32PM 39.5383 -74.1213 231° Southwest 315 362 14,400 -2,100 Descending FlightAware ADS-B
10:32PM 39.5357 -74.1269 239° Southwest 316 364 14,300 -1,320 Descending FlightAware ADS-B
10:32PM 39.5295 -74.1451 246° West 317 365 14,100 -300 Descending FlightAware ADS-B
10:33PM 39.5257 -74.2036 265° West 329 379 14,100 -120 Level FlightAware ADS-B
10:33PM 39.5272 -74.2648 272° West 332 382 14,000 -120 Descending FlightAware ADS-B
10:34PM 39.5285 -74.3247 272° West 331 381 14,000 -600 Level FlightAware ADS-B
10:34PM 39.5297 -74.3841 272° West 321 369 13,400 -1,740 Descending FlightAware ADS-B
10:35PM 39.5307 -74.4419 271° West 314 361 12,300 -2,160 Descending FlightAware ADS-B
10:35PM 39.5321 -74.5114 272° West 309 356 11,000 -1,380 Descending FlightAware ADS-B
10:36PM 39.5324 -74.5751 270° West 286 329 10,600 -600 Descending FlightAware ADS-B
10:36PM 39.5330 -74.6281 271° West 250 288 10,300 -900 Descending FlightAware ADS-B
10:37PM 39.5340 -74.6771 272° West 239 275 9,600 -1,440 Descending FlightAware ADS-B
10:37PM 39.5344 -74.6965 272° West 246 283 9,200 -1,020 Descending FlightAware ADS-B
10:37PM 39.5349 -74.7209 272° West 254 292 9,100 -420 Descending FlightAware ADS-B
10:38PM 39.5354 -74.7441 272° West 258 297 9,000  Descending FlightAware ADS-B
10:38PM 39.5358 -74.7698 271° West 258 297 9,100 180 Climbing FlightAware ADS-B
10:38PM 39.5363 -74.7941 272° West 256 295 9,100  Level FlightAware ADS-B
10:39PM 39.5368 -74.8202 271° West 256 295 9,100 -240 Level FlightAware ADS-B
10:39PM 39.5372 -74.8438 271° West 254 292 9,000 -780 Descending FlightAware ADS-B
10:39PM 39.5376 -74.8668 271° West 249 287 8,700 -1,800 Descending FlightAware ADS-B
10:39PM 39.5378 -74.8896 271° West 247 284 8,100 -2,700 Descending FlightAware ADS-B
10:40PM 39.5383 -74.9213 271° West 250 288 7,100 -2,760 Descending FlightAware ADS-B
10:40PM 39.5387 -74.9416 271° West 247 284 6,500 -2,520 Descending FlightAware ADS-B
10:40PM 39.5391 -74.9463 276° West 247 284 6,400 -1,380 Descending FlightAware ADS-B
10:40PM 39.5404 -74.9548 281° West 249 287 6,300 -1,020 Descending FlightAware ADS-B
10:40PM 39.5435 -74.9640 294° West 250 288 6,200 -1,140 Descending FlightAware ADS-B
10:40PM 39.5466 -74.9703 303° West 251 289 6,100 -720 Descending FlightAware ADS-B
10:40PM 39.5493 -74.9743 311° West 252 290 6,100  Level FlightAware ADS-B
10:40PM 39.5526 -74.9783 317° Northwest 253 291 6,100  Level FlightAware ADS-B
10:40PM 39.5583 -74.9841 322° Northwest 255 293 6,100  Level FlightAware ADS-B
10:41PM 39.5705 -74.9954 324° Northwest 259 298 6,100 -240 Level FlightAware ADS-B
10:41PM 39.5872 -75.0096 327° Northwest 259 298 6,000 -180 Descending FlightAware ADS-B
10:41PM 39.6081 -75.0275 327° Northwest 241 277 6,000  Level FlightAware ADS-B
10:42PM 39.6227 -75.0400 327° Northwest 226 260 6,000  Level FlightAware ADS-B
10:42PM 39.6360 -75.0513 327° Northwest 214 246 6,000  Level FlightAware ADS-B
10:42PM 39.6486 -75.0621 327° Northwest 202 232 6,000  Level FlightAware ADS-B
10:42PM 39.6476 -75.0693 260° West 207 238 6,000  Level FlightAware ADS-B
10:43PM 39.6914 -75.0741 355° North 213 245 6,000 -180 Level FlightAware ADS-B
10:43PM 39.7083 -75.0758 356° North 213 245 5,900 -960 Descending FlightAware ADS-B
10:43PM 39.7233 -75.0775 355° North 211 243 5,500 -1,500 Descending FlightAware ADS-B
10:44PM 39.7402 -75.0795 355° North 210 242 5,100 -1,500 Descending FlightAware ADS-B
10:44PM 39.7548 -75.0811 355° North 209 241 4,700 -1,560 Descending FlightAware ADS-B
10:44PM 39.7698 -75.0829 355° North 209 241 4,300 -1,500 Descending FlightAware ADS-B
10:44PM 39.7904 -75.0828 360° North 210 242 3,800 -1,440 Descending FlightAware ADS-B
10:45PM 39.7944 -75.0807 22° Northeast 229 264 3,700 -1,380 Descending FlightAware ADS-B
10:45PM 39.7989 -75.0774 29° Northeast 234 269 3,600 -600 Descending FlightAware ADS-B
10:45PM 39.8031 -75.0727 41° Northeast 239 275 3,600 -1,020 Level FlightAware ADS-B
10:45PM 39.8079 -75.0647 52° Northeast 243 280 3,400 -1,260 Descending FlightAware ADS-B
10:45PM 39.8147 -75.0405 70° East 245 282 3,100 -780 Descending FlightAware ADS-B
10:45PM 39.8179 -75.0179 80° East 248 285 3,000 -240 Descending FlightAware ADS-B
10:46PM 39.8216 -74.9957 78° East 250 288 3,000  Level FlightAware ADS-B
10:46PM 39.8246 -74.9815 75° East 246 283 3,000  Level FlightAware ADS-B
10:46PM 39.8261 -74.9768 67° East 242 278 3,000  Level FlightAware ADS-B
10:46PM 39.8279 -74.9727 60° Northeast 238 274 3,000  Level FlightAware ADS-B
10:46PM 39.8298 -74.9692 55° Northeast 235 270 3,000 720 Level FlightAware ADS-B
10:46PM 39.8331 -74.9643 49° Northeast 231 266 3,100 300 Climbing FlightAware ADS-B
10:46PM 39.8446 -74.9496 44° Northeast 230 265 3,100 -240 Level FlightAware ADS-B
10:47PM 39.8556 -74.9354 45° Northeast 229 264 3,000 -240 Descending FlightAware ADS-B
10:47PM 39.8637 -74.9254 43° Northeast 225 259 3,000  Level FlightAware ADS-B
10:47PM 39.8669 -74.9227 33° Northeast 221 254 3,000  Level FlightAware ADS-B
10:47PM 39.8702 -74.9206 26° Northeast 216 249 3,000 960 Level FlightAware ADS-B
10:47PM 39.8730 -74.9194 18° North 212 244 3,100 720 Climbing FlightAware ADS-B
10:47PM 39.8772 -74.9185 North 206 237 3,100  Level FlightAware ADS-B
10:47PM 39.8892 -74.9174 North 203 234 3,100 -240 Level FlightAware ADS-B
10:47PM 39.9050 -74.9165 North 202 232 3,000 -180 Descending FlightAware ADS-B
10:48PM 39.9221 -74.9174 358° North 196 226 3,000  Level FlightAware ADS-B
10:48PM 39.9250 -74.9189 338° Northwest 178 205 3,000  Level FlightAware ADS-B
10:48PM 39.9276 -74.9210 328° Northwest 172 198 3,000  Level FlightAware ADS-B
10:48PM 39.9297 -74.9235 318° Northwest 166 191 3,000  Level FlightAware ADS-B
10:48PM 39.9312 -74.9262 306° West 159 183 3,000  Level FlightAware ADS-B
10:48PM 39.9322 -74.9289 296° West 154 177 3,000  Level FlightAware ADS-B
10:48PM 39.9328 -74.9321 284° West 149 171 3,000  Level FlightAware ADS-B
10:48PM 39.9329 -74.9348 273° West 146 168 3,000 720 Level FlightAware ADS-B
10:48PM 39.9323 -74.9384 258° West 144 166 3,100  Climbing FlightAware ADS-B
10:48PM 39.9302 -74.9469 252° West 144 166 3,000 -480 Descending FlightAware ADS-B
10:48PM 39.9295 -74.9503 255° West 144 166 3,000  Level FlightAware ADS-B
10:49PM 39.9278 -74.9590 256° West 143 165 3,000  Level FlightAware ADS-B
10:49PM 39.9251 -74.9717 255° West 143 165 3,000  Level FlightAware ADS-B
10:49PM 39.9223 -74.9850 255° West 142 163 3,000  Level FlightAware ADS-B
10:49PM 39.9193 -75.0004 256° West 142 163 3,000  Level FlightAware ADS-B
10:50PM 39.9167 -75.0139 256° West 140 161 3,000  Level FlightAware ADS-B